createdAt,value
2022-09-29T00:00:10.695Z,2.37
2022-09-29T00:02:41.716Z,2.30
2022-09-29T00:05:10.419Z,2.17
2022-09-29T00:07:39.065Z,2.00
2022-09-29T00:10:09.532Z,2.17
2022-09-29T00:12:38.033Z,1.90
2022-09-29T00:15:08.056Z,1.77
2022-09-29T00:17:36.422Z,2.00
2022-09-29T00:20:05.093Z,2.03
2022-09-29T00:22:33.908Z,2.30
2022-09-29T00:25:02.257Z,1.80
2022-09-29T00:27:31.934Z,2.03
2022-09-29T00:30:00.478Z,1.90
2022-09-29T00:32:29.316Z,2.17
2022-09-29T00:34:57.600Z,2.03
2022-09-29T00:37:25.942Z,2.03
2022-09-29T00:39:54.922Z,1.87
2022-09-29T00:42:23.860Z,2.37
2022-09-29T00:45:17.612Z,2.00
2022-09-29T00:47:52.016Z,1.87
2022-09-29T00:50:24.859Z,2.13
2022-09-29T00:52:56.787Z,1.93
2022-09-29T00:55:27.503Z,2.17
2022-09-29T00:58:00.093Z,2.10
2022-09-29T01:00:30.017Z,2.23
2022-09-29T01:03:03.418Z,1.97
2022-09-29T01:05:35.753Z,2.33
2022-09-29T01:08:12.324Z,2.00
2022-09-29T01:10:42.451Z,1.90
2022-09-29T01:13:10.805Z,2.40
2022-09-29T01:15:40.607Z,2.00
2022-09-29T01:18:09.133Z,2.30
2022-09-29T01:20:44.669Z,2.50
2022-09-29T01:23:49.712Z,2.60
2022-09-29T01:26:50.166Z,2.60
2022-09-29T01:29:48.664Z,2.07
2022-09-29T01:32:25.593Z,2.40
2022-09-29T01:35:04.324Z,2.10
2022-09-29T01:38:04.553Z,2.10
2022-09-29T01:40:39.918Z,2.20
2022-09-29T01:43:12.216Z,2.30
2022-09-29T01:45:45.202Z,2.20
2022-09-29T01:48:19.873Z,2.17
2022-09-29T01:50:51.876Z,2.20
2022-09-29T01:53:25.010Z,1.90
2022-09-29T01:55:58.479Z,1.80
2022-09-29T01:58:55.086Z,2.10
2022-09-29T02:01:26.673Z,2.30
2022-09-29T02:04:23.104Z,2.40
2022-09-29T02:06:58.247Z,2.10
2022-09-29T02:09:34.401Z,2.30
2022-09-29T02:12:04.746Z,2.17
2022-09-29T02:14:37.667Z,2.07
2022-09-29T02:17:09.262Z,2.07
2022-09-29T02:19:43.560Z,2.27
2022-09-29T02:22:12.019Z,1.90
2022-09-29T02:24:40.398Z,1.80
2022-09-29T02:27:09.044Z,2.27
2022-09-29T02:29:38.898Z,2.00
2022-09-29T02:32:09.958Z,1.97
2022-09-29T02:34:43.741Z,2.07
2022-09-29T02:37:23.768Z,2.30
2022-09-29T02:40:11.267Z,2.20
2022-09-29T02:42:46.716Z,2.30
2022-09-29T02:45:25.339Z,2.17
2022-09-29T02:48:08.992Z,1.90
2022-09-29T02:50:56.372Z,2.07
2022-09-29T02:53:44.724Z,2.80
2022-09-29T02:56:23.179Z,2.20
2022-09-29T02:58:55.279Z,2.47
2022-09-29T03:01:23.829Z,2.03
2022-09-29T03:03:52.123Z,2.20
2022-09-29T03:06:22.436Z,2.13
2022-09-29T03:08:50.662Z,2.10
2022-09-29T03:11:18.934Z,2.30
2022-09-29T03:13:47.215Z,2.20
2022-09-29T03:16:15.638Z,1.90
2022-09-29T03:18:44.248Z,2.10
2022-09-29T03:21:18.526Z,2.30
2022-09-29T03:23:48.215Z,2.20
2022-09-29T03:26:16.498Z,2.10
2022-09-29T03:28:44.720Z,3.40
2022-09-29T03:31:20.046Z,2.20
2022-09-29T03:33:48.851Z,2.20
2022-09-29T03:36:17.168Z,2.23
2022-09-29T03:38:47.118Z,2.00
2022-09-29T03:41:17.041Z,2.27
2022-09-29T03:43:45.406Z,2.17
2022-09-29T03:46:13.843Z,2.23
2022-09-29T03:48:43.019Z,2.10
2022-09-29T03:51:11.333Z,1.87
2022-09-29T03:53:39.633Z,2.13
2022-09-29T03:56:07.948Z,2.00
2022-09-29T03:59:04.145Z,2.37
2022-09-29T04:01:32.752Z,2.30
2022-09-29T04:04:01.321Z,2.17
2022-09-29T04:06:29.590Z,2.30
2022-09-29T04:08:57.852Z,2.20
2022-09-29T04:11:26.256Z,2.70
2022-09-29T04:13:54.637Z,2.20
2022-09-29T04:16:24.402Z,2.33
2022-09-29T04:19:17.936Z,2.27
2022-09-29T04:21:46.155Z,2.70
2022-09-29T04:24:14.534Z,5.97
2022-09-29T04:26:42.883Z,5.23
2022-09-29T04:29:13.381Z,4.20
2022-09-29T04:32:09.722Z,3.80
2022-09-29T04:34:38.204Z,5.10
2022-09-29T04:37:11.336Z,6.67
2022-09-29T04:39:39.966Z,3.20
2022-09-29T04:42:08.351Z,2.97
2022-09-29T04:44:36.811Z,3.33
2022-09-29T04:47:05.389Z,3.00
2022-09-29T04:49:35.243Z,3.00
2022-09-29T04:52:03.793Z,3.10
2022-09-29T04:54:37.728Z,3.10
2022-09-29T04:57:07.043Z,2.97
2022-09-29T04:59:49.525Z,2.70
2022-09-29T05:02:17.994Z,2.83
2022-09-29T05:04:48.633Z,3.47
2022-09-29T05:07:17.487Z,3.40
2022-09-29T05:09:46.127Z,3.33
2022-09-29T05:12:14.855Z,4.10
2022-09-29T05:14:43.179Z,4.03
2022-09-29T05:17:11.543Z,3.73
2022-09-29T05:19:39.920Z,3.40
2022-09-29T05:22:09.696Z,3.57
2022-09-29T05:24:37.905Z,3.93
2022-09-29T05:27:06.195Z,3.60
2022-09-29T05:29:34.487Z,3.83
2022-09-29T05:32:02.950Z,3.37
2022-09-29T05:34:31.169Z,3.50
2022-09-29T05:36:59.355Z,3.60
2022-09-29T05:39:31.942Z,2.53
2022-09-29T05:42:00.160Z,3.07
2022-09-29T05:44:28.573Z,3.80
2022-09-29T05:46:56.853Z,3.17
2022-09-29T05:49:25.182Z,3.40
2022-09-29T05:51:53.766Z,3.70
2022-09-29T05:54:22.835Z,3.07
2022-09-29T05:56:52.464Z,3.00
2022-09-29T05:59:21.165Z,2.87
2022-09-29T06:01:49.601Z,3.90
2022-09-29T06:04:18.809Z,2.83
2022-09-29T06:06:48.278Z,2.70
2022-09-29T06:09:16.785Z,3.10
2022-09-29T06:11:45.134Z,2.73
2022-09-29T06:14:14.875Z,2.63
2022-09-29T06:16:44.583Z,2.30
2022-09-29T06:19:13.722Z,2.47
2022-09-29T06:21:42.127Z,2.70
2022-09-29T06:24:10.628Z,2.77
2022-09-29T06:26:39.106Z,2.60
2022-09-29T06:29:07.436Z,2.70
2022-09-29T06:31:37.324Z,3.00
2022-09-29T06:34:06.527Z,3.27
2022-09-29T06:36:58.667Z,2.73
2022-09-29T06:39:27.404Z,3.33
2022-09-29T06:42:03.660Z,2.63
2022-09-29T06:44:32.221Z,3.20
2022-09-29T06:47:02.198Z,2.63
2022-09-29T06:49:30.422Z,2.60
2022-09-29T06:51:58.855Z,2.30
2022-09-29T06:54:27.300Z,2.50
2022-09-29T06:56:56.514Z,2.97
2022-09-29T06:59:24.757Z,2.70
2022-09-29T07:01:53.116Z,3.10
2022-09-29T07:04:23.228Z,2.80
2022-09-29T07:06:52.459Z,2.50
2022-09-29T07:09:21.195Z,2.60
2022-09-29T07:11:51.924Z,2.30
2022-09-29T07:14:22.774Z,5.17
2022-09-29T07:16:51.715Z,2.13
2022-09-29T07:19:20.955Z,2.33
2022-09-29T07:21:51.806Z,2.20
2022-09-29T07:24:20.647Z,1.83
2022-09-29T07:26:48.947Z,1.90
2022-09-29T07:29:17.431Z,2.53
2022-09-29T07:31:51.887Z,2.20
2022-09-29T07:34:21.192Z,2.10
2022-09-29T07:36:51.312Z,2.50
2022-09-29T07:39:22.767Z,2.30
2022-09-29T07:41:52.032Z,2.00
2022-09-29T07:44:20.731Z,2.27
2022-09-29T07:46:50.230Z,2.57
2022-09-29T07:49:18.598Z,2.40
2022-09-29T07:51:47.025Z,2.37
2022-09-29T07:54:16.678Z,2.30
2022-09-29T07:56:44.968Z,2.40
2022-09-29T07:59:13.443Z,2.40
2022-09-29T08:01:41.724Z,2.60
2022-09-29T08:04:09.944Z,2.50
2022-09-29T08:06:38.562Z,2.20
2022-09-29T08:09:06.948Z,2.30
2022-09-29T08:11:39.522Z,2.60
2022-09-29T08:14:08.758Z,2.20
2022-09-29T08:16:38.468Z,2.80
2022-09-29T08:19:07.686Z,2.23
2022-09-29T08:21:37.363Z,2.10
2022-09-29T08:24:07.282Z,2.10
2022-09-29T08:26:43.948Z,2.30
2022-09-29T08:29:16.901Z,2.33
2022-09-29T08:31:48.850Z,2.40
2022-09-29T08:34:17.756Z,2.00
2022-09-29T08:36:46.332Z,2.40
2022-09-29T08:39:15.705Z,2.47
2022-09-29T08:41:53.010Z,1.90
2022-09-29T08:44:38.525Z,2.10
2022-09-29T08:47:47.139Z,2.30
2022-09-29T08:50:23.749Z,2.20
2022-09-29T08:52:58.184Z,2.03
2022-09-29T08:55:35.693Z,2.20
2022-09-29T08:58:05.451Z,2.43
2022-09-29T09:00:40.817Z,2.37
2022-09-29T09:03:35.074Z,2.23
2022-09-29T09:06:15.757Z,2.10
2022-09-29T09:09:01.204Z,1.77
2022-09-29T09:11:50.380Z,1.80
2022-09-29T09:14:36.167Z,2.00
2022-09-29T09:17:19.429Z,1.90
2022-09-29T09:20:13.032Z,1.80
2022-09-29T09:22:49.224Z,1.63
2022-09-29T09:25:28.127Z,1.50
2022-09-29T09:28:05.385Z,1.30
2022-09-29T09:31:02.688Z,1.30
2022-09-29T09:33:38.125Z,1.60
2022-09-29T09:36:16.401Z,1.83
2022-09-29T09:38:59.564Z,1.40
2022-09-29T09:41:35.795Z,1.70
2022-09-29T09:44:10.516Z,1.30
2022-09-29T09:46:47.130Z,1.40
2022-09-29T09:49:21.322Z,1.53
2022-09-29T09:51:59.253Z,1.30
2022-09-29T09:54:32.536Z,1.50
2022-09-29T09:57:28.322Z,1.47
2022-09-29T10:00:15.337Z,1.43
2022-09-29T10:02:48.510Z,1.27
2022-09-29T10:05:19.203Z,1.40
2022-09-29T10:07:48.916Z,1.30
2022-09-29T10:10:20.322Z,1.30
2022-09-29T10:12:48.609Z,1.53
2022-09-29T10:15:23.160Z,1.73
2022-09-29T10:18:05.379Z,1.30
2022-09-29T10:20:36.590Z,1.50
2022-09-29T10:23:27.397Z,1.80
2022-09-29T10:25:59.486Z,1.27
2022-09-29T10:28:37.690Z,1.60
2022-09-29T10:31:18.849Z,1.50
2022-09-29T10:33:58.569Z,1.70
2022-09-29T10:36:30.277Z,1.77
2022-09-29T10:39:03.289Z,1.70
2022-09-29T10:41:52.305Z,1.50
2022-09-29T10:45:11.155Z,1.80
2022-09-29T10:47:40.426Z,1.70
2022-09-29T10:50:26.074Z,1.60
2022-09-29T10:52:56.327Z,1.67
2022-09-29T10:55:30.871Z,1.60
2022-09-29T10:58:02.017Z,1.90
2022-09-29T11:00:34.821Z,1.70
2022-09-29T11:03:08.834Z,1.67
2022-09-29T11:05:56.205Z,1.77
2022-09-29T11:08:27.843Z,1.50
2022-09-29T11:11:06.715Z,1.80
2022-09-29T11:13:40.302Z,1.70
2022-09-29T11:16:16.950Z,1.70
2022-09-29T11:18:47.415Z,1.70
2022-09-29T11:25:32.327Z,2.00
2022-09-29T11:28:48.832Z,1.90
2022-09-29T11:31:32.192Z,1.70
2022-09-29T11:34:15.328Z,2.00
2022-09-29T11:36:52.673Z,1.80
2022-09-29T11:39:31.727Z,1.90
2022-09-29T11:42:32.991Z,1.70
2022-09-29T11:48:30.022Z,1.70
2022-09-29T11:51:11.291Z,1.90
2022-09-29T11:54:01.711Z,2.00
2022-09-29T11:56:42.831Z,1.73
2022-09-29T11:59:25.276Z,1.53
2022-09-29T12:02:06.693Z,1.80
2022-09-29T12:04:49.065Z,2.00
2022-09-29T12:07:29.219Z,1.60
2022-09-29T12:10:39.137Z,1.57
2022-09-29T12:13:19.881Z,1.70
2022-09-29T12:15:56.781Z,1.77
2022-09-29T12:18:32.389Z,1.60
2022-09-29T12:21:02.918Z,1.87
2022-09-29T12:23:34.300Z,1.70
2022-09-29T12:26:09.498Z,1.80
2022-09-29T12:28:45.925Z,1.80
2022-09-29T12:31:20.693Z,1.80
2022-09-29T12:34:05.075Z,1.83
2022-09-29T12:37:02.549Z,1.77
2022-09-29T12:39:39.443Z,2.00
2022-09-29T12:42:33.267Z,1.97
2022-09-29T12:45:11.065Z,2.00
2022-09-29T12:47:51.687Z,1.97
2022-09-29T12:50:24.315Z,1.90
2022-09-29T12:52:58.962Z,1.60
2022-09-29T12:55:32.927Z,2.00
2022-09-29T12:58:08.019Z,2.00
2022-09-29T13:01:04.788Z,2.00
2022-09-29T13:04:15.455Z,1.80
2022-09-29T13:07:18.599Z,1.77
2022-09-29T13:10:20.898Z,1.90
2022-09-29T13:13:17.042Z,1.90
2022-09-29T13:16:00.574Z,2.00
2022-09-29T13:19:14.549Z,2.20
2022-09-29T13:21:58.996Z,1.73
2022-09-29T13:24:45.805Z,1.90
2022-09-29T13:27:31.365Z,6.03
2022-09-29T13:30:06.793Z,2.20
2022-09-29T13:32:42.291Z,2.10
2022-09-29T13:35:39.813Z,2.00
2022-09-29T13:38:13.031Z,2.10
2022-09-29T13:41:03.045Z,2.00
2022-09-29T13:43:42.128Z,1.63
2022-09-29T13:46:42.280Z,1.80
2022-09-29T13:49:17.400Z,1.57
2022-09-29T13:51:52.674Z,1.60
2022-09-29T13:54:43.380Z,1.70
2022-09-29T13:57:29.655Z,1.60
2022-09-29T14:00:20.389Z,2.50
2022-09-29T14:03:03.514Z,1.73
2022-09-29T14:05:56.213Z,1.70
2022-09-29T14:08:52.129Z,2.30
2022-09-29T14:11:24.715Z,2.30
2022-09-29T14:13:59.237Z,2.40
2022-09-29T14:16:47.085Z,2.00
2022-09-29T14:19:31.441Z,10.53
2022-09-29T14:22:01.102Z,4.60
2022-09-29T14:24:47.697Z,2.30
2022-09-29T14:27:30.664Z,2.73
2022-09-29T14:30:18.010Z,3.10
2022-09-29T14:32:55.170Z,2.30
2022-09-29T14:35:30.767Z,2.50
2022-09-29T14:38:07.115Z,2.00
2022-09-29T14:40:35.559Z,3.30
2022-09-29T14:43:46.993Z,3.20
2022-09-29T14:47:08.293Z,2.30
2022-09-29T14:50:19.571Z,3.00
2022-09-29T14:53:03.908Z,3.13
2022-09-29T14:55:43.500Z,4.40
2022-09-29T14:58:29.084Z,2.07
2022-09-29T15:01:10.617Z,2.13
2022-09-29T15:03:47.249Z,2.40
2022-09-29T15:06:20.427Z,2.50
2022-09-29T15:08:56.860Z,2.60
2022-09-29T15:11:35.616Z,2.33
2022-09-29T15:14:04.892Z,2.03
2022-09-29T15:16:43.283Z,2.20
2022-09-29T15:19:35.723Z,1.87
2022-09-29T15:22:20.489Z,2.07
2022-09-29T15:25:08.264Z,2.20
2022-09-29T15:27:41.194Z,2.00
2022-09-29T15:30:35.131Z,2.07
2022-09-29T15:33:21.335Z,5.30
2022-09-29T15:35:53.805Z,8.47
2022-09-29T15:38:40.186Z,9.50
2022-09-29T15:41:18.230Z,3.60
2022-09-29T15:43:55.954Z,3.20
2022-09-29T15:46:26.403Z,3.30
2022-09-29T15:49:17.915Z,2.80
2022-09-29T15:51:56.328Z,3.83
2022-09-29T15:54:27.107Z,2.83
2022-09-29T15:57:18.745Z,9.27
2022-09-29T15:59:52.574Z,8.40
2022-09-29T16:02:29.734Z,4.07
2022-09-29T16:05:01.634Z,2.40
2022-09-29T16:07:32.775Z,2.30
2022-09-29T16:10:09.922Z,2.63
2022-09-29T16:12:41.818Z,3.77
2022-09-29T16:15:18.558Z,2.80
2022-09-29T16:17:49.916Z,2.50
2022-09-29T16:20:26.979Z,3.10
2022-09-29T16:22:56.051Z,3.83
2022-09-29T16:25:28.147Z,3.90
2022-09-29T16:27:58.799Z,3.63
2022-09-29T16:30:29.917Z,4.47
2022-09-29T16:33:05.183Z,4.90
2022-09-29T16:35:50.907Z,5.63
2022-09-29T16:38:34.811Z,7.37
2022-09-29T16:41:20.727Z,7.37
2022-09-29T16:43:50.347Z,3.80
2022-09-29T16:46:21.998Z,2.90
2022-09-29T16:48:51.524Z,4.70
2022-09-29T16:51:38.363Z,3.00
2022-09-29T16:54:07.637Z,3.10
2022-09-29T16:56:37.404Z,3.13
2022-09-29T16:59:25.464Z,3.40
2022-09-29T17:01:53.980Z,3.83
2022-09-29T17:04:22.679Z,3.53
2022-09-29T17:06:51.096Z,4.40
2022-09-29T17:09:24.333Z,4.17
2022-09-29T17:11:54.231Z,4.00
2022-09-29T17:14:22.698Z,4.30
2022-09-29T17:16:51.650Z,4.50
2022-09-29T17:19:22.636Z,4.00
2022-09-29T17:21:52.398Z,5.60
2022-09-29T17:24:20.796Z,4.10
2022-09-29T17:27:06.991Z,3.93
2022-09-29T17:29:37.794Z,3.87
2022-09-29T17:32:14.232Z,3.53
2022-09-29T17:34:42.610Z,3.57
2022-09-29T17:37:11.700Z,3.67
2022-09-29T17:39:40.382Z,3.47
2022-09-29T17:42:08.832Z,3.33
2022-09-29T17:44:44.822Z,4.17
2022-09-29T17:47:27.651Z,3.73
2022-09-29T17:49:57.512Z,4.93
2022-09-29T17:52:25.808Z,5.77
2022-09-29T17:55:22.983Z,4.90
2022-09-29T17:58:29.784Z,3.93
2022-09-29T18:00:59.913Z,4.53
2022-09-29T18:03:29.467Z,4.90
2022-09-29T18:05:59.948Z,5.30
2022-09-29T18:08:29.678Z,4.50
2022-09-29T18:10:59.595Z,4.70
2022-09-29T18:13:31.489Z,4.30
2022-09-29T18:16:02.237Z,3.83
2022-09-29T18:18:30.911Z,4.77
2022-09-29T18:21:01.040Z,4.57
2022-09-29T18:23:30.346Z,5.77
2022-09-29T18:25:59.327Z,5.33
2022-09-29T18:28:27.798Z,5.30
2022-09-29T18:31:26.490Z,5.27
2022-09-29T18:33:55.690Z,5.20
2022-09-29T18:36:24.191Z,5.07
2022-09-29T18:38:52.775Z,5.03
2022-09-29T18:41:28.596Z,4.40
2022-09-29T18:43:59.511Z,4.60
2022-09-29T18:46:31.161Z,5.47
2022-09-29T18:48:59.771Z,5.63
2022-09-29T18:51:28.105Z,5.03
2022-09-29T18:53:57.586Z,5.80
2022-09-29T18:56:25.978Z,4.80
2022-09-29T18:58:54.443Z,4.40
2022-09-29T19:01:27.516Z,4.80
2022-09-29T19:03:57.611Z,4.60
2022-09-29T19:06:26.562Z,4.00
2022-09-29T19:08:54.947Z,4.33
2022-09-29T19:11:25.417Z,4.13
2022-09-29T19:13:56.231Z,4.33
2022-09-29T19:16:51.349Z,4.40
2022-09-29T19:19:21.487Z,4.30
2022-09-29T19:22:12.692Z,4.60
2022-09-29T19:24:41.161Z,5.87
2022-09-29T19:27:10.104Z,5.63
2022-09-29T19:29:38.817Z,5.67
2022-09-29T19:32:07.555Z,6.00
2022-09-29T19:34:37.446Z,6.23
2022-09-29T19:37:06.200Z,5.73
2022-09-29T19:39:34.658Z,5.60
2022-09-29T19:42:02.977Z,6.40
2022-09-29T19:44:32.221Z,5.43
2022-09-29T19:47:01.823Z,5.30
2022-09-29T19:49:30.536Z,6.33
2022-09-29T19:51:59.618Z,5.43
2022-09-29T19:54:33.330Z,4.93
2022-09-29T19:57:05.805Z,5.40
2022-09-29T19:59:36.785Z,5.80
2022-09-29T20:02:12.318Z,6.20
2022-09-29T20:04:53.085Z,5.87
2022-09-29T20:07:23.376Z,5.30
2022-09-29T20:09:52.111Z,4.47
2022-09-29T20:12:20.544Z,4.43
2022-09-29T20:14:48.970Z,4.40
2022-09-29T20:17:17.770Z,4.27
2022-09-29T20:19:47.759Z,4.20
2022-09-29T20:22:16.443Z,4.50
2022-09-29T20:24:46.514Z,4.37
2022-09-29T20:27:14.948Z,4.13
2022-09-29T20:29:43.754Z,4.20
2022-09-29T20:32:12.470Z,4.33
2022-09-29T20:34:45.461Z,4.37
2022-09-29T20:37:15.144Z,4.33
2022-09-29T20:39:50.585Z,3.93
2022-09-29T20:42:19.329Z,3.90
2022-09-29T20:44:48.299Z,3.87
2022-09-29T20:47:18.838Z,4.73
2022-09-29T20:49:47.592Z,4.40
2022-09-29T20:52:15.945Z,4.43
2022-09-29T20:54:44.922Z,4.30
2022-09-29T20:57:15.251Z,4.13
2022-09-29T20:59:59.339Z,4.73
2022-09-29T21:02:27.935Z,4.60
2022-09-29T21:04:56.779Z,4.60
2022-09-29T21:07:37.020Z,4.90
2022-09-29T21:10:06.435Z,4.70
2022-09-29T21:12:51.622Z,4.93
2022-09-29T21:15:20.020Z,4.80
2022-09-29T21:17:48.549Z,4.83
2022-09-29T21:20:17.740Z,4.93
2022-09-29T21:23:04.689Z,5.77
2022-09-29T21:25:33.198Z,4.90
2022-09-29T21:28:03.891Z,5.33
2022-09-29T21:30:32.749Z,4.67
2022-09-29T21:33:01.135Z,4.63
2022-09-29T21:35:31.225Z,4.70
2022-09-29T21:38:00.091Z,4.87
2022-09-29T21:40:28.470Z,5.03
2022-09-29T21:42:57.109Z,5.73
2022-09-29T21:45:27.017Z,5.20
2022-09-29T21:48:11.564Z,5.40
2022-09-29T21:50:40.174Z,5.20
2022-09-29T21:53:08.787Z,5.10
2022-09-29T21:55:42.609Z,5.10
2022-09-29T21:58:11.298Z,5.20
2022-09-29T22:00:42.160Z,5.20
2022-09-29T22:03:11.121Z,5.60
2022-09-29T22:05:43.110Z,5.43
2022-09-29T22:08:12.387Z,5.13
2022-09-29T22:10:40.789Z,5.37
2022-09-29T22:13:09.269Z,5.30
2022-09-29T22:15:37.566Z,5.33
2022-09-29T22:18:07.271Z,5.47
2022-09-29T22:20:37.463Z,5.60
2022-09-29T22:23:07.043Z,5.30
2022-09-29T22:25:35.747Z,5.20
2022-09-29T22:28:04.073Z,5.70
2022-09-29T22:30:33.637Z,5.50
2022-09-29T22:33:02.104Z,5.23
2022-09-29T22:35:34.970Z,6.57
2022-09-29T22:38:03.530Z,5.57
2022-09-29T22:40:33.127Z,6.40
2022-09-29T22:43:01.692Z,6.40
2022-09-29T22:45:30.674Z,6.03
2022-09-29T22:47:59.286Z,7.30
2022-09-29T22:50:31.595Z,8.93
2022-09-29T22:53:01.789Z,9.47
2022-09-29T22:55:32.067Z,8.63
2022-09-29T22:58:00.576Z,9.27
2022-09-29T23:00:29.249Z,11.40
2022-09-29T23:02:57.614Z,11.23
2022-09-29T23:05:26.348Z,9.97
2022-09-29T23:07:55.060Z,10.50
2022-09-29T23:10:25.098Z,13.37
2022-09-29T23:12:53.597Z,14.57
2022-09-29T23:15:22.435Z,17.03
2022-09-29T23:17:51.326Z,15.13
2022-09-29T23:21:10.748Z,17.37
2022-09-29T23:23:40.542Z,17.90
2022-09-29T23:26:10.707Z,17.10
2022-09-29T23:28:39.246Z,17.13
2022-09-29T23:31:10.117Z,16.97
2022-09-29T23:33:38.916Z,15.57
2022-09-29T23:36:09.608Z,17.83
2022-09-29T23:38:56.398Z,15.53
2022-09-29T23:41:27.708Z,14.47
2022-09-29T23:43:57.133Z,14.97
2022-09-29T23:46:26.485Z,15.20
2022-09-29T23:48:56.587Z,17.07
2022-09-29T23:51:25.209Z,16.57
2022-09-29T23:53:53.608Z,14.33
2022-09-29T23:56:22.597Z,14.47
2022-09-29T23:58:52.961Z,13.43
